KDCA/DCA METAR and TAF weather

Enter ICAO airport designator
Station Type Date Time Source
KDCA METAR 2021/04/17 01:52 UTC NOAA

KDCA 170152Z 31011G23KT 10SM FEW065 12/00 A2984 RMK AO2 PK WND 30026/0116 SLP105 T01170000


Station Type Date Time Source
KDCA Decoded METAR 2021/04/17 01:52 UTC NOAA

WASHINGTON NATIONAL AIRPORT , VA, United States (KDCA) 38-51N 077-02W 18M
Apr 16, 2021 - 09:52 PM EDT / 2021.04.17 0152 UTC
Wind: from the NW (310 degrees) at 13 MPH (11 KT) gusting to 26 MPH (23 KT):0
Visibility: 10 mile(s):0
Sky conditions: mostly clear
Temperature: 53.1 F (11.7 C)
Dew Point: 32.0 F (0.0 C)
Relative Humidity: 44%
Pressure (altimeter): 29.84 in. Hg (1010 hPa)
ob: KDCA 170152Z 31011G23KT 10SM FEW065 12/00 A2984 RMK AO2 PK WND 30026/0116 SLP105 T01170000
cycle: 2

Station Type Date Time Source
KDCA TAF 2021/04/16 21:06 UTC NOAA

TAF
AMD KDCA 162104Z 1621/1724 29013G26KT P6SM SCT090
FM170000 31010G18KT P6SM SCT150
FM170900 29006KT P6SM SKC
FM171200 32010G18KT P6SM SKC
FM171400 31009KT P6SM SCT050
FM172000 31008KT P6SM BKN050

Example: see airport list